sensor_id;sensor_type;location;lat;lon;timestamp;temperature;humidity
18365;DHT22;9309;52.126;11.616;2023-07-09T00:00:54;22.20;46.90
18365;DHT22;9309;52.126;11.616;2023-07-09T00:03:20;22.20;46.90
18365;DHT22;9309;52.126;11.616;2023-07-09T00:05:48;22.20;46.90
18365;DHT22;9309;52.126;11.616;2023-07-09T00:08:24;22.20;46.80
18365;DHT22;9309;52.126;11.616;2023-07-09T00:10:53;22.10;47.10
18365;DHT22;9309;52.126;11.616;2023-07-09T00:13:20;22.10;47.10
18365;DHT22;9309;52.126;11.616;2023-07-09T00:15:48;22.10;47.20
18365;DHT22;9309;52.126;11.616;2023-07-09T00:18:16;22.10;47.20
18365;DHT22;9309;52.126;11.616;2023-07-09T00:20:43;22.20;47.20
18365;DHT22;9309;52.126;11.616;2023-07-09T00:23:09;22.10;47.40
18365;DHT22;9309;52.126;11.616;2023-07-09T00:25:39;22.00;48.00
18365;DHT22;9309;52.126;11.616;2023-07-09T00:28:12;21.80;48.90
18365;DHT22;9309;52.126;11.616;2023-07-09T00:30:39;21.60;49.30
18365;DHT22;9309;52.126;11.616;2023-07-09T00:33:10;21.50;49.50
18365;DHT22;9309;52.126;11.616;2023-07-09T00:35:37;21.60;49.40
18365;DHT22;9309;52.126;11.616;2023-07-09T00:38:07;21.70;49.10
18365;DHT22;9309;52.126;11.616;2023-07-09T00:40:34;21.70;49.50
18365;DHT22;9309;52.126;11.616;2023-07-09T00:43:01;21.60;49.60
18365;DHT22;9309;52.126;11.616;2023-07-09T00:45:30;21.50;49.90
18365;DHT22;9309;52.126;11.616;2023-07-09T00:47:58;21.50;50.00
18365;DHT22;9309;52.126;11.616;2023-07-09T00:50:34;21.60;50.10
18365;DHT22;9309;52.126;11.616;2023-07-09T00:53:08;21.40;50.10
18365;DHT22;9309;52.126;11.616;2023-07-09T00:55:41;21.40;50.50
18365;DHT22;9309;52.126;11.616;2023-07-09T00:58:12;21.30;50.80
18365;DHT22;9309;52.126;11.616;2023-07-09T01:00:45;21.30;50.90
18365;DHT22;9309;52.126;11.616;2023-07-09T01:03:20;21.20;51.30
18365;DHT22;9309;52.126;11.616;2023-07-09T01:05:49;21.10;51.70
18365;DHT22;9309;52.126;11.616;2023-07-09T01:08:18;21.00;52.20
18365;DHT22;9309;52.126;11.616;2023-07-09T01:10:46;20.90;52.70
18365;DHT22;9309;52.126;11.616;2023-07-09T01:13:14;20.70;53.30
18365;DHT22;9309;52.126;11.616;2023-07-09T01:15:41;20.60;53.60
18365;DHT22;9309;52.126;11.616;2023-07-09T01:18:08;20.50;53.90
18365;DHT22;9309;52.126;11.616;2023-07-09T01:20:38;20.30;54.00
18365;DHT22;9309;52.126;11.616;2023-07-09T01:23:07;20.30;54.90
18365;DHT22;9309;52.126;11.616;2023-07-09T01:25:36;20.20;54.80
18365;DHT22;9309;52.126;11.616;2023-07-09T01:28:04;20.20;54.40
18365;DHT22;9309;52.126;11.616;2023-07-09T01:30:36;20.10;54.60
18365;DHT22;9309;52.126;11.616;2023-07-09T01:33:04;20.20;54.60
18365;DHT22;9309;52.126;11.616;2023-07-09T01:35:35;20.20;54.80
18365;DHT22;9309;52.126;11.616;2023-07-09T01:38:02;20.40;54.70
18365;DHT22;9309;52.126;11.616;2023-07-09T01:40:36;20.50;54.80
18365;DHT22;9309;52.126;11.616;2023-07-09T01:43:04;20.30;55.10
18365;DHT22;9309;52.126;11.616;2023-07-09T01:45:34;20.20;55.20
18365;DHT22;9309;52.126;11.616;2023-07-09T01:48:02;20.00;55.60
18365;DHT22;9309;52.126;11.616;2023-07-09T01:50:29;19.90;56.20
18365;DHT22;9309;52.126;11.616;2023-07-09T01:52:56;19.90;56.20
18365;DHT22;9309;52.126;11.616;2023-07-09T01:55:24;19.90;56.10
18365;DHT22;9309;52.126;11.616;2023-07-09T01:57:52;20.10;55.20
18365;DHT22;9309;52.126;11.616;2023-07-09T02:00:19;20.20;54.90
18365;DHT22;9309;52.126;11.616;2023-07-09T02:02:47;20.10;55.60
18365;DHT22;9309;52.126;11.616;2023-07-09T02:05:16;20.20;56.00
18365;DHT22;9309;52.126;11.616;2023-07-09T02:07:44;20.10;55.90
18365;DHT22;9309;52.126;11.616;2023-07-09T02:10:15;20.20;55.90
18365;DHT22;9309;52.126;11.616;2023-07-09T02:12:42;20.10;55.90
18365;DHT22;9309;52.126;11.616;2023-07-09T02:15:11;20.10;56.10
18365;DHT22;9309;52.126;11.616;2023-07-09T02:17:38;20.10;56.50
18365;DHT22;9309;52.126;11.616;2023-07-09T02:20:06;20.00;56.80
18365;DHT22;9309;52.126;11.616;2023-07-09T02:22:33;20.00;57.00
18365;DHT22;9309;52.126;11.616;2023-07-09T02:25:00;19.90;56.80
18365;DHT22;9309;52.126;11.616;2023-07-09T02:27:27;19.80;57.30
18365;DHT22;9309;52.126;11.616;2023-07-09T02:29:55;19.70;57.60
18365;DHT22;9309;52.126;11.616;2023-07-09T02:32:25;19.50;58.00
18365;DHT22;9309;52.126;11.616;2023-07-09T02:34:53;19.40;58.90
18365;DHT22;9309;52.126;11.616;2023-07-09T02:37:21;19.30;58.90
18365;DHT22;9309;52.126;11.616;2023-07-09T02:39:48;19.40;58.70
18365;DHT22;9309;52.126;11.616;2023-07-09T02:42:17;19.30;58.90
18365;DHT22;9309;52.126;11.616;2023-07-09T02:44:45;19.40;58.70
18365;DHT22;9309;52.126;11.616;2023-07-09T02:47:12;19.40;58.90
18365;DHT22;9309;52.126;11.616;2023-07-09T02:49:41;19.40;59.10
18365;DHT22;9309;52.126;11.616;2023-07-09T02:52:08;19.30;59.30
18365;DHT22;9309;52.126;11.616;2023-07-09T02:54:35;19.20;59.30
18365;DHT22;9309;52.126;11.616;2023-07-09T02:57:02;19.30;59.30
18365;DHT22;9309;52.126;11.616;2023-07-09T02:59:29;19.30;60.10
18365;DHT22;9309;52.126;11.616;2023-07-09T03:01:56;19.20;60.00
18365;DHT22;9309;52.126;11.616;2023-07-09T03:04:23;19.10;60.60
18365;DHT22;9309;52.126;11.616;2023-07-09T03:06:52;18.90;61.00
18365;DHT22;9309;52.126;11.616;2023-07-09T03:09:19;19.00;60.50
18365;DHT22;9309;52.126;11.616;2023-07-09T03:11:46;19.00;60.80
18365;DHT22;9309;52.126;11.616;2023-07-09T03:14:14;18.90;61.10
18365;DHT22;9309;52.126;11.616;2023-07-09T03:16:41;19.10;60.60
18365;DHT22;9309;52.126;11.616;2023-07-09T03:19:07;19.10;61.00
18365;DHT22;9309;52.126;11.616;2023-07-09T03:21:34;19.00;61.70
18365;DHT22;9309;52.126;11.616;2023-07-09T03:24:03;19.00;61.30
18365;DHT22;9309;52.126;11.616;2023-07-09T03:26:30;18.90;61.90
18365;DHT22;9309;52.126;11.616;2023-07-09T03:28:57;18.80;62.10
18365;DHT22;9309;52.126;11.616;2023-07-09T03:31:24;19.00;61.70
18365;DHT22;9309;52.126;11.616;2023-07-09T03:33:51;18.80;62.30
18365;DHT22;9309;52.126;11.616;2023-07-09T03:36:19;18.70;62.80
18365;DHT22;9309;52.126;11.616;2023-07-09T03:38:46;18.80;62.90
18365;DHT22;9309;52.126;11.616;2023-07-09T03:41:14;19.00;62.50
18365;DHT22;9309;52.126;11.616;2023-07-09T03:43:41;18.80;63.10
18365;DHT22;9309;52.126;11.616;2023-07-09T03:46:08;18.80;63.20
18365;DHT22;9309;52.126;11.616;2023-07-09T03:48:34;18.70;63.70
18365;DHT22;9309;52.126;11.616;2023-07-09T03:51:01;18.90;63.20
18365;DHT22;9309;52.126;11.616;2023-07-09T03:53:28;19.00;63.00
18365;DHT22;9309;52.126;11.616;2023-07-09T03:55:56;18.80;64.40
18365;DHT22;9309;52.126;11.616;2023-07-09T03:58:25;19.00;64.00
18365;DHT22;9309;52.126;11.616;2023-07-09T04:00:53;19.10;63.60
18365;DHT22;9309;52.126;11.616;2023-07-09T04:03:20;19.20;63.60
18365;DHT22;9309;52.126;11.616;2023-07-09T04:05:47;19.20;63.60
18365;DHT22;9309;52.126;11.616;2023-07-09T04:08:15;19.00;64.50
18365;DHT22;9309;52.126;11.616;2023-07-09T04:10:42;19.00;64.60
18365;DHT22;9309;52.126;11.616;2023-07-09T04:13:08;19.20;64.40
18365;DHT22;9309;52.126;11.616;2023-07-09T04:15:36;19.20;64.70
18365;DHT22;9309;52.126;11.616;2023-07-09T04:18:03;19.30;64.50
18365;DHT22;9309;52.126;11.616;2023-07-09T04:20:30;19.40;64.10
18365;DHT22;9309;52.126;11.616;2023-07-09T04:22:57;19.50;63.40
18365;DHT22;9309;52.126;11.616;2023-07-09T04:25:23;19.50;63.80
18365;DHT22;9309;52.126;11.616;2023-07-09T04:27:50;19.50;64.10
18365;DHT22;9309;52.126;11.616;2023-07-09T04:30:17;19.60;63.90
18365;DHT22;9309;52.126;11.616;2023-07-09T04:32:45;19.60;64.00
18365;DHT22;9309;52.126;11.616;2023-07-09T04:35:14;19.50;63.60
18365;DHT22;9309;52.126;11.616;2023-07-09T04:37:41;19.60;63.10
18365;DHT22;9309;52.126;11.616;2023-07-09T04:40:09;19.90;62.30
18365;DHT22;9309;52.126;11.616;2023-07-09T04:42:38;19.90;61.80
18365;DHT22;9309;52.126;11.616;2023-07-09T04:45:07;20.00;60.90
18365;DHT22;9309;52.126;11.616;2023-07-09T04:47:35;20.10;60.40
18365;DHT22;9309;52.126;11.616;2023-07-09T04:50:05;20.20;61.50
18365;DHT22;9309;52.126;11.616;2023-07-09T04:52:33;20.30;60.70
18365;DHT22;9309;52.126;11.616;2023-07-09T04:54:59;20.20;60.80
18365;DHT22;9309;52.126;11.616;2023-07-09T04:57:27;20.10;60.50
18365;DHT22;9309;52.126;11.616;2023-07-09T04:59:54;20.10;61.00
18365;DHT22;9309;52.126;11.616;2023-07-09T05:02:21;20.40;60.20
18365;DHT22;9309;52.126;11.616;2023-07-09T05:04:48;20.60;60.10
18365;DHT22;9309;52.126;11.616;2023-07-09T05:07:16;20.60;59.60
18365;DHT22;9309;52.126;11.616;2023-07-09T05:09:43;20.80;59.20
18365;DHT22;9309;52.126;11.616;2023-07-09T05:12:10;20.90;59.20
18365;DHT22;9309;52.126;11.616;2023-07-09T05:14:37;20.90;59.20
18365;DHT22;9309;52.126;11.616;2023-07-09T05:17:04;20.90;59.20
18365;DHT22;9309;52.126;11.616;2023-07-09T05:19:31;21.00;59.20
18365;DHT22;9309;52.126;11.616;2023-07-09T05:21:58;21.10;58.90
18365;DHT22;9309;52.126;11.616;2023-07-09T05:24:26;21.10;58.80
18365;DHT22;9309;52.126;11.616;2023-07-09T05:26:53;21.20;56.90
18365;DHT22;9309;52.126;11.616;2023-07-09T05:29:20;21.20;56.40
18365;DHT22;9309;52.126;11.616;2023-07-09T05:31:46;21.50;54.60
18365;DHT22;9309;52.126;11.616;2023-07-09T05:34:13;21.60;54.20
18365;DHT22;9309;52.126;11.616;2023-07-09T05:36:40;21.70;54.40
18365;DHT22;9309;52.126;11.616;2023-07-09T05:39:07;21.70;55.20
18365;DHT22;9309;52.126;11.616;2023-07-09T05:41:35;21.70;54.80
18365;DHT22;9309;52.126;11.616;2023-07-09T05:44:02;21.90;53.70
18365;DHT22;9309;52.126;11.616;2023-07-09T05:46:28;21.70;55.00
18365;DHT22;9309;52.126;11.616;2023-07-09T05:49:01;21.50;53.20
18365;DHT22;9309;52.126;11.616;2023-07-09T05:51:28;21.80;53.00
18365;DHT22;9309;52.126;11.616;2023-07-09T05:53:55;22.00;52.50
18365;DHT22;9309;52.126;11.616;2023-07-09T05:56:21;22.10;53.10
18365;DHT22;9309;52.126;11.616;2023-07-09T05:58:49;22.10;52.80
18365;DHT22;9309;52.126;11.616;2023-07-09T06:01:16;22.00;53.30
18365;DHT22;9309;52.126;11.616;2023-07-09T06:03:43;22.10;53.60
18365;DHT22;9309;52.126;11.616;2023-07-09T06:06:11;22.10;53.00
18365;DHT22;9309;52.126;11.616;2023-07-09T06:08:38;22.00;52.40
18365;DHT22;9309;52.126;11.616;2023-07-09T06:11:05;21.90;53.00
18365;DHT22;9309;52.126;11.616;2023-07-09T06:13:32;22.20;52.70
18365;DHT22;9309;52.126;11.616;2023-07-09T06:16:01;22.40;51.20
18365;DHT22;9309;52.126;11.616;2023-07-09T06:18:27;22.40;51.10
18365;DHT22;9309;52.126;11.616;2023-07-09T06:20:57;22.30;52.10
18365;DHT22;9309;52.126;11.616;2023-07-09T06:23:24;22.20;52.00
18365;DHT22;9309;52.126;11.616;2023-07-09T06:25:51;22.10;52.10
18365;DHT22;9309;52.126;11.616;2023-07-09T06:28:20;22.10;52.30
18365;DHT22;9309;52.126;11.616;2023-07-09T06:30:48;21.90;52.20
18365;DHT22;9309;52.126;11.616;2023-07-09T06:33:17;21.90;52.50
18365;DHT22;9309;52.126;11.616;2023-07-09T06:35:48;22.10;52.20
18365;DHT22;9309;52.126;11.616;2023-07-09T06:38:15;22.30;53.30
18365;DHT22;9309;52.126;11.616;2023-07-09T06:40:42;22.30;54.50
18365;DHT22;9309;52.126;11.616;2023-07-09T06:43:09;22.30;53.90
18365;DHT22;9309;52.126;11.616;2023-07-09T06:45:39;22.20;53.10
18365;DHT22;9309;52.126;11.616;2023-07-09T06:48:15;22.30;53.20
18365;DHT22;9309;52.126;11.616;2023-07-09T06:50:42;22.50;53.60
18365;DHT22;9309;52.126;11.616;2023-07-09T06:53:09;22.60;52.20
18365;DHT22;9309;52.126;11.616;2023-07-09T06:55:36;22.80;51.30
18365;DHT22;9309;52.126;11.616;2023-07-09T06:58:02;22.90;51.90
18365;DHT22;9309;52.126;11.616;2023-07-09T07:00:29;22.90;51.40
18365;DHT22;9309;52.126;11.616;2023-07-09T07:02:56;23.00;51.30
18365;DHT22;9309;52.126;11.616;2023-07-09T07:05:25;23.20;50.60
18365;DHT22;9309;52.126;11.616;2023-07-09T07:07:52;23.40;50.30
18365;DHT22;9309;52.126;11.616;2023-07-09T07:10:19;23.50;50.00
18365;DHT22;9309;52.126;11.616;2023-07-09T07:12:47;23.70;49.40
18365;DHT22;9309;52.126;11.616;2023-07-09T07:15:16;23.80;49.80
18365;DHT22;9309;52.126;11.616;2023-07-09T07:17:43;23.70;49.40
18365;DHT22;9309;52.126;11.616;2023-07-09T07:20:12;23.40;49.30
18365;DHT22;9309;52.126;11.616;2023-07-09T07:22:40;23.40;50.40
18365;DHT22;9309;52.126;11.616;2023-07-09T07:25:08;23.50;50.50
18365;DHT22;9309;52.126;11.616;2023-07-09T07:27:36;23.60;51.50
18365;DHT22;9309;52.126;11.616;2023-07-09T07:30:03;23.70;50.60
18365;DHT22;9309;52.126;11.616;2023-07-09T07:32:31;23.90;48.70
18365;DHT22;9309;52.126;11.616;2023-07-09T07:34:57;24.20;49.80
18365;DHT22;9309;52.126;11.616;2023-07-09T07:37:24;24.50;48.10
18365;DHT22;9309;52.126;11.616;2023-07-09T07:39:52;24.70;46.70
18365;DHT22;9309;52.126;11.616;2023-07-09T07:42:19;24.80;46.90
18365;DHT22;9309;52.126;11.616;2023-07-09T07:44:45;24.80;47.00
18365;DHT22;9309;52.126;11.616;2023-07-09T07:47:12;24.90;47.00
18365;DHT22;9309;52.126;11.616;2023-07-09T07:49:39;24.80;47.60
18365;DHT22;9309;52.126;11.616;2023-07-09T07:52:06;24.90;48.30
18365;DHT22;9309;52.126;11.616;2023-07-09T07:54:33;24.90;48.20
18365;DHT22;9309;52.126;11.616;2023-07-09T07:57:02;25.00;47.40
18365;DHT22;9309;52.126;11.616;2023-07-09T07:59:29;24.90;46.50
18365;DHT22;9309;52.126;11.616;2023-07-09T08:01:58;25.00;46.60
18365;DHT22;9309;52.126;11.616;2023-07-09T08:04:25;25.10;47.10
18365;DHT22;9309;52.126;11.616;2023-07-09T08:06:51;25.00;46.70
18365;DHT22;9309;52.126;11.616;2023-07-09T08:09:19;25.00;47.00
18365;DHT22;9309;52.126;11.616;2023-07-09T08:11:46;25.30;46.80
18365;DHT22;9309;52.126;11.616;2023-07-09T08:14:14;25.50;46.70
18365;DHT22;9309;52.126;11.616;2023-07-09T08:16:41;25.50;47.00
18365;DHT22;9309;52.126;11.616;2023-07-09T08:19:08;25.70;46.10
18365;DHT22;9309;52.126;11.616;2023-07-09T08:21:34;25.90;45.80
18365;DHT22;9309;52.126;11.616;2023-07-09T08:24:01;26.10;45.10
18365;DHT22;9309;52.126;11.616;2023-07-09T08:26:28;25.90;44.70
18365;DHT22;9309;52.126;11.616;2023-07-09T08:28:57;26.20;44.50
18365;DHT22;9309;52.126;11.616;2023-07-09T08:31:25;26.40;44.40
18365;DHT22;9309;52.126;11.616;2023-07-09T08:33:51;26.40;44.50
18365;DHT22;9309;52.126;11.616;2023-07-09T08:36:18;26.40;44.70
18365;DHT22;9309;52.126;11.616;2023-07-09T08:38:45;26.50;44.40
18365;DHT22;9309;52.126;11.616;2023-07-09T08:41:20;26.50;44.80
18365;DHT22;9309;52.126;11.616;2023-07-09T08:43:58;26.60;45.40
18365;DHT22;9309;52.126;11.616;2023-07-09T08:46:37;26.60;45.70
18365;DHT22;9309;52.126;11.616;2023-07-09T08:49:16;26.90;45.20
18365;DHT22;9309;52.126;11.616;2023-07-09T08:51:46;27.00;44.40
18365;DHT22;9309;52.126;11.616;2023-07-09T08:54:17;27.00;44.30
18365;DHT22;9309;52.126;11.616;2023-07-09T08:56:47;27.30;42.70
18365;DHT22;9309;52.126;11.616;2023-07-09T08:59:17;27.50;42.90
18365;DHT22;9309;52.126;11.616;2023-07-09T09:01:51;27.50;43.80
18365;DHT22;9309;52.126;11.616;2023-07-09T09:04:21;27.40;44.30
18365;DHT22;9309;52.126;11.616;2023-07-09T09:06:53;27.50;44.20
18365;DHT22;9309;52.126;11.616;2023-07-09T09:09:28;27.60;43.40
18365;DHT22;9309;52.126;11.616;2023-07-09T09:12:02;27.40;44.00
18365;DHT22;9309;52.126;11.616;2023-07-09T09:14:33;27.70;42.20
18365;DHT22;9309;52.126;11.616;2023-07-09T09:17:03;27.90;41.10
18365;DHT22;9309;52.126;11.616;2023-07-09T09:19:33;27.90;42.30
18365;DHT22;9309;52.126;11.616;2023-07-09T09:22:07;28.20;41.70
18365;DHT22;9309;52.126;11.616;2023-07-09T09:24:37;28.30;41.10
18365;DHT22;9309;52.126;11.616;2023-07-09T09:27:08;28.50;41.10
18365;DHT22;9309;52.126;11.616;2023-07-09T09:29:35;28.60;41.10
18365;DHT22;9309;52.126;11.616;2023-07-09T09:32:21;28.70;42.40
18365;DHT22;9309;52.126;11.616;2023-07-09T09:34:49;28.60;41.20
18365;DHT22;9309;52.126;11.616;2023-07-09T09:37:24;28.70;40.90
18365;DHT22;9309;52.126;11.616;2023-07-09T09:39:51;29.00;40.10
18365;DHT22;9309;52.126;11.616;2023-07-09T09:42:18;29.10;39.30
18365;DHT22;9309;52.126;11.616;2023-07-09T09:44:46;29.20;39.30
18365;DHT22;9309;52.126;11.616;2023-07-09T09:47:15;29.40;39.40
18365;DHT22;9309;52.126;11.616;2023-07-09T09:49:42;29.50;40.10
18365;DHT22;9309;52.126;11.616;2023-07-09T09:52:12;29.50;40.90
18365;DHT22;9309;52.126;11.616;2023-07-09T09:54:41;29.30;40.60
18365;DHT22;9309;52.126;11.616;2023-07-09T09:57:16;29.70;39.00
18365;DHT22;9309;52.126;11.616;2023-07-09T09:59:45;29.60;39.20
18365;DHT22;9309;52.126;11.616;2023-07-09T10:02:17;29.90;39.00
18365;DHT22;9309;52.126;11.616;2023-07-09T10:04:44;29.90;38.10
18365;DHT22;9309;52.126;11.616;2023-07-09T10:07:21;30.10;37.40
18365;DHT22;9309;52.126;11.616;2023-07-09T10:09:51;31.10;35.70
18365;DHT22;9309;52.126;11.616;2023-07-09T10:12:36;31.10;35.10
18365;DHT22;9309;52.126;11.616;2023-07-09T10:15:16;30.90;35.90
18365;DHT22;9309;52.126;11.616;2023-07-09T10:17:53;30.50;36.30
18365;DHT22;9309;52.126;11.616;2023-07-09T10:20:24;30.60;36.40
18365;DHT22;9309;52.126;11.616;2023-07-09T10:22:54;31.10;34.30
18365;DHT22;9309;52.126;11.616;2023-07-09T10:25:34;32.10;32.80
18365;DHT22;9309;52.126;11.616;2023-07-09T10:28:29;33.90;30.90
18365;DHT22;9309;52.126;11.616;2023-07-09T10:31:04;34.50;28.70
18365;DHT22;9309;52.126;11.616;2023-07-09T10:33:42;34.00;29.50
18365;DHT22;9309;52.126;11.616;2023-07-09T10:36:21;32.90;30.20
18365;DHT22;9309;52.126;11.616;2023-07-09T10:38:54;32.70;29.30
18365;DHT22;9309;52.126;11.616;2023-07-09T10:41:24;34.50;27.60
18365;DHT22;9309;52.126;11.616;2023-07-09T10:43:56;36.20;25.80
18365;DHT22;9309;52.126;11.616;2023-07-09T10:46:27;36.90;23.40
18365;DHT22;9309;52.126;11.616;2023-07-09T10:48:56;37.60;24.10
18365;DHT22;9309;52.126;11.616;2023-07-09T10:51:28;40.40;22.90
18365;DHT22;9309;52.126;11.616;2023-07-09T10:53:58;41.50;21.70
18365;DHT22;9309;52.126;11.616;2023-07-09T10:56:28;42.30;21.00
18365;DHT22;9309;52.126;11.616;2023-07-09T10:59:02;41.10;21.80
18365;DHT22;9309;52.126;11.616;2023-07-09T11:01:33;42.50;20.60
18365;DHT22;9309;52.126;11.616;2023-07-09T11:04:06;41.30;21.20
18365;DHT22;9309;52.126;11.616;2023-07-09T11:06:38;40.50;21.30
18365;DHT22;9309;52.126;11.616;2023-07-09T11:09:22;38.70;22.60
18365;DHT22;9309;52.126;11.616;2023-07-09T11:11:53;39.90;22.70
18365;DHT22;9309;52.126;11.616;2023-07-09T11:14:22;42.90;20.10
18365;DHT22;9309;52.126;11.616;2023-07-09T11:16:53;45.40;18.50
18365;DHT22;9309;52.126;11.616;2023-07-09T11:19:22;47.20;17.30
18365;DHT22;9309;52.126;11.616;2023-07-09T11:21:58;48.80;15.70
18365;DHT22;9309;52.126;11.616;2023-07-09T11:24:35;49.50;15.90
18365;DHT22;9309;52.126;11.616;2023-07-09T11:27:02;47.70;15.90
18365;DHT22;9309;52.126;11.616;2023-07-09T11:29:29;47.70;16.30
18365;DHT22;9309;52.126;11.616;2023-07-09T11:32:08;46.80;17.40
18365;DHT22;9309;52.126;11.616;2023-07-09T11:34:45;46.80;17.30
18365;DHT22;9309;52.126;11.616;2023-07-09T11:37:13;48.80;16.10
18365;DHT22;9309;52.126;11.616;2023-07-09T11:39:46;47.90;16.20
18365;DHT22;9309;52.126;11.616;2023-07-09T11:42:28;47.30;16.50
18365;DHT22;9309;52.126;11.616;2023-07-09T11:45:02;47.70;16.30
18365;DHT22;9309;52.126;11.616;2023-07-09T11:47:32;48.60;15.60
18365;DHT22;9309;52.126;11.616;2023-07-09T11:50:05;47.30;16.00
18365;DHT22;9309;52.126;11.616;2023-07-09T11:52:35;48.60;15.50
18365;DHT22;9309;52.126;11.616;2023-07-09T11:55:19;47.40;16.30
18365;DHT22;9309;52.126;11.616;2023-07-09T11:57:48;47.10;16.60
18365;DHT22;9309;52.126;11.616;2023-07-09T12:00:16;48.70;15.50
18365;DHT22;9309;52.126;11.616;2023-07-09T12:02:43;48.90;15.40
18365;DHT22;9309;52.126;11.616;2023-07-09T12:05:12;48.60;15.70
18365;DHT22;9309;52.126;11.616;2023-07-09T12:07:40;47.80;16.30
18365;DHT22;9309;52.126;11.616;2023-07-09T12:10:20;46.10;16.40
18365;DHT22;9309;52.126;11.616;2023-07-09T12:12:48;45.10;17.50
18365;DHT22;9309;52.126;11.616;2023-07-09T12:15:21;46.30;16.50
18365;DHT22;9309;52.126;11.616;2023-07-09T12:17:59;47.10;16.10
18365;DHT22;9309;52.126;11.616;2023-07-09T12:20:31;45.40;17.90
18365;DHT22;9309;52.126;11.616;2023-07-09T12:23:09;45.30;18.00
18365;DHT22;9309;52.126;11.616;2023-07-09T12:25:36;45.20;17.50
18365;DHT22;9309;52.126;11.616;2023-07-09T12:28:03;45.30;17.70
18365;DHT22;9309;52.126;11.616;2023-07-09T12:30:32;46.50;16.50
18365;DHT22;9309;52.126;11.616;2023-07-09T12:32:59;46.80;17.10
18365;DHT22;9309;52.126;11.616;2023-07-09T12:35:30;48.00;15.70
18365;DHT22;9309;52.126;11.616;2023-07-09T12:37:56;46.30;16.70
18365;DHT22;9309;52.126;11.616;2023-07-09T12:40:28;45.20;17.80
18365;DHT22;9309;52.126;11.616;2023-07-09T12:42:56;44.40;17.30
18365;DHT22;9309;52.126;11.616;2023-07-09T12:45:23;44.70;17.40
18365;DHT22;9309;52.126;11.616;2023-07-09T12:47:51;46.30;16.90
18365;DHT22;9309;52.126;11.616;2023-07-09T12:50:22;44.80;18.40
18365;DHT22;9309;52.126;11.616;2023-07-09T12:52:55;45.40;17.10
18365;DHT22;9309;52.126;11.616;2023-07-09T12:55:24;46.60;16.70
18365;DHT22;9309;52.126;11.616;2023-07-09T12:57:51;47.60;16.00
18365;DHT22;9309;52.126;11.616;2023-07-09T13:00:19;47.80;15.80
18365;DHT22;9309;52.126;11.616;2023-07-09T13:02:53;47.80;15.80
18365;DHT22;9309;52.126;11.616;2023-07-09T13:05:28;48.60;15.50
18365;DHT22;9309;52.126;11.616;2023-07-09T13:07:59;48.20;15.60
18365;DHT22;9309;52.126;11.616;2023-07-09T13:10:28;48.00;15.10
18365;DHT22;9309;52.126;11.616;2023-07-09T13:12:57;45.60;17.20
18365;DHT22;9309;52.126;11.616;2023-07-09T13:15:26;43.80;18.20
18365;DHT22;9309;52.126;11.616;2023-07-09T13:17:58;45.40;17.50
18365;DHT22;9309;52.126;11.616;2023-07-09T13:20:26;46.00;16.90
18365;DHT22;9309;52.126;11.616;2023-07-09T13:22:53;47.20;16.90
18365;DHT22;9309;52.126;11.616;2023-07-09T13:25:21;46.30;17.00
18365;DHT22;9309;52.126;11.616;2023-07-09T13:27:48;46.10;17.60
18365;DHT22;9309;52.126;11.616;2023-07-09T13:30:15;46.60;16.70
18365;DHT22;9309;52.126;11.616;2023-07-09T13:32:43;48.40;15.50
18365;DHT22;9309;52.126;11.616;2023-07-09T13:35:13;48.60;16.70
18365;DHT22;9309;52.126;11.616;2023-07-09T13:37:41;46.00;17.80
18365;DHT22;9309;52.126;11.616;2023-07-09T13:40:11;47.80;17.40
18365;DHT22;9309;52.126;11.616;2023-07-09T13:42:39;47.50;16.30
18365;DHT22;9309;52.126;11.616;2023-07-09T13:45:16;47.10;16.00
18365;DHT22;9309;52.126;11.616;2023-07-09T13:47:43;47.40;16.30
18365;DHT22;9309;52.126;11.616;2023-07-09T13:50:10;45.30;17.50
18365;DHT22;9309;52.126;11.616;2023-07-09T13:52:37;45.20;17.40
18365;DHT22;9309;52.126;11.616;2023-07-09T13:55:05;46.10;16.70
18365;DHT22;9309;52.126;11.616;2023-07-09T13:57:32;47.20;16.70
18365;DHT22;9309;52.126;11.616;2023-07-09T14:00:00;48.40;15.80
18365;DHT22;9309;52.126;11.616;2023-07-09T14:02:31;48.80;15.50
18365;DHT22;9309;52.126;11.616;2023-07-09T14:05:25;48.90;15.10
18365;DHT22;9309;52.126;11.616;2023-07-09T14:07:55;49.50;15.30
18365;DHT22;9309;52.126;11.616;2023-07-09T14:10:22;48.90;15.40
18365;DHT22;9309;52.126;11.616;2023-07-09T14:12:50;48.10;16.10
18365;DHT22;9309;52.126;11.616;2023-07-09T14:15:20;47.90;16.50
18365;DHT22;9309;52.126;11.616;2023-07-09T14:17:47;45.70;17.10
18365;DHT22;9309;52.126;11.616;2023-07-09T14:20:15;46.80;16.30
18365;DHT22;9309;52.126;11.616;2023-07-09T14:22:43;46.60;17.10
18365;DHT22;9309;52.126;11.616;2023-07-09T14:25:17;47.20;17.00
18365;DHT22;9309;52.126;11.616;2023-07-09T14:27:45;44.30;18.70
18365;DHT22;9309;52.126;11.616;2023-07-09T14:30:15;44.30;18.60
18365;DHT22;9309;52.126;11.616;2023-07-09T14:32:45;44.60;18.40
18365;DHT22;9309;52.126;11.616;2023-07-09T14:35:14;42.10;20.00
18365;DHT22;9309;52.126;11.616;2023-07-09T14:37:42;41.30;19.80
18365;DHT22;9309;52.126;11.616;2023-07-09T14:40:09;40.50;20.80
18365;DHT22;9309;52.126;11.616;2023-07-09T14:42:37;39.40;21.60
18365;DHT22;9309;52.126;11.616;2023-07-09T14:45:05;38.60;22.30
18365;DHT22;9309;52.126;11.616;2023-07-09T14:47:32;38.20;22.80
18365;DHT22;9309;52.126;11.616;2023-07-09T14:50:00;38.20;22.90
18365;DHT22;9309;52.126;11.616;2023-07-09T14:52:28;37.60;23.10
18365;DHT22;9309;52.126;11.616;2023-07-09T14:54:55;37.30;23.60
18365;DHT22;9309;52.126;11.616;2023-07-09T14:57:23;37.60;23.70
18365;DHT22;9309;52.126;11.616;2023-07-09T14:59:52;37.70;23.90
18365;DHT22;9309;52.126;11.616;2023-07-09T15:02:22;36.30;24.30
18365;DHT22;9309;52.126;11.616;2023-07-09T15:04:50;35.50;25.30
18365;DHT22;9309;52.126;11.616;2023-07-09T15:07:18;35.40;24.40
18365;DHT22;9309;52.126;11.616;2023-07-09T15:09:45;35.20;25.90
18365;DHT22;9309;52.126;11.616;2023-07-09T15:12:25;35.10;27.20
18365;DHT22;9309;52.126;11.616;2023-07-09T15:14:53;35.40;26.00
18365;DHT22;9309;52.126;11.616;2023-07-09T15:17:21;36.40;24.00
18365;DHT22;9309;52.126;11.616;2023-07-09T15:19:48;37.60;23.10
18365;DHT22;9309;52.126;11.616;2023-07-09T15:22:26;38.00;22.80
18365;DHT22;9309;52.126;11.616;2023-07-09T15:24:53;37.00;24.80
18365;DHT22;9309;52.126;11.616;2023-07-09T15:27:20;37.00;23.90
18365;DHT22;9309;52.126;11.616;2023-07-09T15:29:47;37.10;24.50
18365;DHT22;9309;52.126;11.616;2023-07-09T15:32:14;37.00;23.80
18365;DHT22;9309;52.126;11.616;2023-07-09T15:34:41;36.70;23.30
18365;DHT22;9309;52.126;11.616;2023-07-09T15:37:12;36.20;24.40
18365;DHT22;9309;52.126;11.616;2023-07-09T15:39:41;35.30;28.00
18365;DHT22;9309;52.126;11.616;2023-07-09T15:42:10;35.00;27.80